createdAt,value
2022-08-05T00:01:00.992Z,1.73
2022-08-05T00:03:46.890Z,2.20
2022-08-05T00:06:29.154Z,2.35
2022-08-05T00:09:03.414Z,1.60
2022-08-05T00:11:35.067Z,1.70
2022-08-05T00:14:18.196Z,1.60
2022-08-05T00:16:52.056Z,2.00
2022-08-05T00:19:24.988Z,1.85
2022-08-05T00:22:03.472Z,1.80
2022-08-05T00:24:35.027Z,2.13
2022-08-05T00:27:10.519Z,1.77
2022-08-05T00:29:45.868Z,1.95
2022-08-05T00:32:15.834Z,1.73
2022-08-05T00:35:03.593Z,2.08
2022-08-05T00:37:52.580Z,1.75
2022-08-05T00:40:29.420Z,1.60
2022-08-05T00:43:01.193Z,2.03
2022-08-05T00:45:38.346Z,1.42
2022-08-05T00:48:10.215Z,1.90
2022-08-05T00:50:41.390Z,2.00
2022-08-05T00:53:44.948Z,1.90
2022-08-05T00:56:03.746Z,1.90
2022-08-05T00:58:32.895Z,1.70
2022-08-05T01:01:02.041Z,2.00
2022-08-05T01:03:38.161Z,1.67
2022-08-05T01:06:14.079Z,1.88
2022-08-05T01:08:44.987Z,1.30
2022-08-05T01:11:24.208Z,1.75
2022-08-05T01:14:09.899Z,1.48
2022-08-05T01:16:44.552Z,1.58
2022-08-05T01:19:56.650Z,1.80
2022-08-05T01:22:57.408Z,1.58
2022-08-05T01:25:53.353Z,1.70
2022-08-05T01:28:32.640Z,2.13
2022-08-05T01:31:08.731Z,1.70
2022-08-05T01:33:49.335Z,1.52
2022-08-05T01:36:28.209Z,1.58
2022-08-05T01:39:00.209Z,1.55
2022-08-05T01:41:35.872Z,1.73
2022-08-05T01:44:09.905Z,1.60
2022-08-05T01:46:46.506Z,1.50
2022-08-05T01:49:23.907Z,1.42
2022-08-05T01:51:58.827Z,1.92
2022-08-05T01:54:32.898Z,2.00
2022-08-05T01:58:12.249Z,1.60
2022-08-05T01:59:59.188Z,1.80
2022-08-05T02:02:30.989Z,1.50
2022-08-05T02:05:04.798Z,1.77
2022-08-05T02:07:43.139Z,1.90
2022-08-05T02:10:28.706Z,1.77
2022-08-05T02:13:04.826Z,1.58
2022-08-05T02:15:51.406Z,1.42
2022-08-05T02:18:31.485Z,1.80
2022-08-05T02:21:14.950Z,1.67
2022-08-05T02:23:47.557Z,2.15
2022-08-05T02:26:23.349Z,1.60
2022-08-05T02:28:58.609Z,1.75
2022-08-05T02:31:34.981Z,2.10
2022-08-05T02:34:11.939Z,1.52
2022-08-05T02:36:45.136Z,1.75
2022-08-05T02:39:21.402Z,1.65
2022-08-05T02:41:57.846Z,1.70
2022-08-05T02:44:33.939Z,1.67
2022-08-05T02:47:07.049Z,1.70
2022-08-05T02:49:40.671Z,2.17
2022-08-05T02:52:13.613Z,2.15
2022-08-05T02:54:56.095Z,1.63
2022-08-05T02:58:10.417Z,1.65
2022-08-05T03:00:16.292Z,1.80
2022-08-05T03:02:49.454Z,1.70
2022-08-05T03:05:21.935Z,1.40
2022-08-05T03:08:12.059Z,1.40
2022-08-05T03:10:44.460Z,1.75
2022-08-05T03:13:51.561Z,2.05
2022-08-05T03:16:22.960Z,1.20
2022-08-05T03:18:53.415Z,1.70
2022-08-05T03:21:23.565Z,1.42
2022-08-05T03:23:59.081Z,1.65
2022-08-05T03:26:31.682Z,1.50
2022-08-05T03:29:01.887Z,1.50
2022-08-05T03:31:56.462Z,1.70
2022-08-05T03:34:24.445Z,1.63
2022-08-05T03:36:53.728Z,1.73
2022-08-05T03:39:27.013Z,1.42
2022-08-05T03:41:57.087Z,1.58
2022-08-05T03:44:29.055Z,1.42
2022-08-05T03:46:58.286Z,1.60
2022-08-05T03:49:31.234Z,1.60
2022-08-05T03:52:38.328Z,1.83
2022-08-05T03:56:05.472Z,1.40
2022-08-05T03:58:13.459Z,1.50
2022-08-05T04:00:44.339Z,1.75
2022-08-05T04:03:28.436Z,1.80
2022-08-05T04:06:00.123Z,1.38
2022-08-05T04:08:36.113Z,1.90
2022-08-05T04:11:09.883Z,1.52
2022-08-05T04:13:50.389Z,2.00
2022-08-05T04:19:00.073Z,1.80
2022-08-05T04:22:09.258Z,1.55
2022-08-05T04:24:22.746Z,1.80
2022-08-05T04:26:52.252Z,1.58
2022-08-05T04:29:22.359Z,1.65
2022-08-05T04:31:52.207Z,1.85
2022-08-05T04:34:33.065Z,1.65
2022-08-05T04:37:05.059Z,1.60
2022-08-05T04:39:35.395Z,1.80
2022-08-05T04:42:05.441Z,1.65
2022-08-05T04:44:34.610Z,1.73
2022-08-05T04:47:09.678Z,1.58
2022-08-05T04:50:02.660Z,2.00
2022-08-05T04:52:33.289Z,1.80
2022-08-05T04:55:14.809Z,1.70
2022-08-05T04:57:47.973Z,1.60
2022-08-05T05:00:23.513Z,1.80
2022-08-05T05:02:53.197Z,1.60
2022-08-05T05:05:28.359Z,1.60
2022-08-05T05:08:02.690Z,1.50
2022-08-05T05:10:33.594Z,1.80
2022-08-05T05:13:04.109Z,2.10
2022-08-05T05:16:00.548Z,2.13
2022-08-05T05:18:31.135Z,1.70
2022-08-05T05:21:04.153Z,1.80
2022-08-05T05:26:28.119Z,1.77
2022-08-05T05:29:02.767Z,1.92
2022-08-05T05:31:46.502Z,1.67
2022-08-05T05:34:18.066Z,2.00
2022-08-05T05:36:53.544Z,1.58
2022-08-05T05:39:24.123Z,1.60
2022-08-05T05:41:54.290Z,1.90
2022-08-05T05:44:37.036Z,2.67
2022-08-05T05:47:21.362Z,1.40
2022-08-05T05:49:52.558Z,1.77
2022-08-05T05:52:29.853Z,1.52
2022-08-05T05:55:07.309Z,2.08
2022-08-05T05:57:42.819Z,1.67
2022-08-05T06:00:27.631Z,1.65
2022-08-05T06:03:03.208Z,1.45
2022-08-05T06:05:54.190Z,2.65
2022-08-05T06:08:32.387Z,1.50
2022-08-05T06:11:04.079Z,1.90
2022-08-05T06:13:40.821Z,1.77
2022-08-05T06:16:30.547Z,1.67
2022-08-05T06:19:01.946Z,2.30
2022-08-05T06:21:37.089Z,1.45
2022-08-05T06:24:11.824Z,1.42
2022-08-05T06:26:51.120Z,1.33
2022-08-05T06:29:25.434Z,1.50
2022-08-05T06:32:26.386Z,1.40
2022-08-05T06:35:06.065Z,1.60
2022-08-05T06:37:55.773Z,1.63
2022-08-05T06:43:02.939Z,1.50
2022-08-05T06:45:44.753Z,1.37
2022-08-05T06:48:52.898Z,1.40
2022-08-05T06:51:12.038Z,1.70
2022-08-05T06:53:58.556Z,1.40
2022-08-05T06:56:28.053Z,1.20
2022-08-05T06:58:58.987Z,1.45
2022-08-05T07:01:32.359Z,1.65
2022-08-05T07:04:03.090Z,1.25
2022-08-05T07:06:32.599Z,1.85
2022-08-05T07:09:04.051Z,1.50
2022-08-05T07:11:37.288Z,1.50
2022-08-05T07:14:29.449Z,1.52
2022-08-05T07:18:00.090Z,1.80
2022-08-05T07:22:43.264Z,1.48
2022-08-05T07:25:22.695Z,1.38
2022-08-05T07:28:09.664Z,1.65
2022-08-05T07:30:43.264Z,1.40
2022-08-05T07:33:17.329Z,1.73
2022-08-05T07:36:02.654Z,1.40
2022-08-05T07:38:42.941Z,1.77
2022-08-05T07:42:09.359Z,1.23
2022-08-05T07:44:19.043Z,1.95
2022-08-05T07:46:50.632Z,1.60
2022-08-05T07:49:54.354Z,1.20
2022-08-05T07:52:24.686Z,1.88
2022-08-05T07:54:55.540Z,1.80
2022-08-05T07:57:41.885Z,1.50
2022-08-05T08:00:18.742Z,1.38
2022-08-05T08:03:14.669Z,1.40
2022-08-05T08:05:49.267Z,1.20
2022-08-05T08:08:20.140Z,1.80
2022-08-05T08:10:49.536Z,1.38
2022-08-05T08:13:21.983Z,1.00
2022-08-05T08:16:34.905Z,1.98
2022-08-05T08:18:50.105Z,1.15
2022-08-05T08:21:20.699Z,1.40
2022-08-05T08:24:03.357Z,1.30
2022-08-05T08:26:34.638Z,1.52
2022-08-05T08:29:29.594Z,1.42
2022-08-05T08:31:53.794Z,1.60
2022-08-05T08:34:30.268Z,1.40
2022-08-05T08:37:04.798Z,1.13
2022-08-05T08:39:37.815Z,1.48
2022-08-05T08:42:32.618Z,1.48
2022-08-05T08:45:23.704Z,1.50
2022-08-05T08:48:10.578Z,1.92
2022-08-05T08:51:23.224Z,1.33
2022-08-05T08:53:44.506Z,1.55
2022-08-05T08:56:14.592Z,1.60
2022-08-05T08:58:48.923Z,1.17
2022-08-05T09:01:19.805Z,1.42
2022-08-05T09:03:55.630Z,1.30
2022-08-05T09:06:30.621Z,1.05
2022-08-05T09:09:01.783Z,0.95
2022-08-05T09:11:51.672Z,1.25
2022-08-05T09:14:56.649Z,1.35
2022-08-05T09:17:40.631Z,1.10
2022-08-05T09:20:05.275Z,1.00
2022-08-05T09:23:21.973Z,1.25
2022-08-05T09:26:01.829Z,1.17
2022-08-05T09:28:34.870Z,0.98
2022-08-05T09:31:44.124Z,1.15
2022-08-05T09:33:56.684Z,1.08
2022-08-05T09:36:38.635Z,0.70
2022-08-05T09:39:39.425Z,1.17
2022-08-05T09:42:23.391Z,0.90
2022-08-05T09:45:17.656Z,0.95
2022-08-05T09:47:56.081Z,1.00
2022-08-05T09:50:43.622Z,0.85
2022-08-05T09:53:22.831Z,1.20
2022-08-05T09:56:03.822Z,0.93
2022-08-05T09:58:35.790Z,0.90
2022-08-05T10:01:22.391Z,0.80
2022-08-05T10:04:10.114Z,1.08
2022-08-05T10:06:41.560Z,1.15
2022-08-05T10:09:25.078Z,0.77
2022-08-05T10:12:31.091Z,1.08
2022-08-05T10:15:17.217Z,0.90
2022-08-05T10:18:10.965Z,0.93
2022-08-05T10:20:44.308Z,0.80
2022-08-05T10:23:34.643Z,1.10
2022-08-05T10:26:14.488Z,0.93
2022-08-05T10:28:46.390Z,1.00
2022-08-05T10:33:01.409Z,1.02
2022-08-05T10:36:39.115Z,1.00
2022-08-05T10:39:24.521Z,1.05
2022-08-05T10:42:01.217Z,1.02
2022-08-05T10:44:32.566Z,1.00
2022-08-05T10:47:25.867Z,0.73
2022-08-05T10:50:20.297Z,0.80
2022-08-05T10:52:58.688Z,1.05
2022-08-05T10:55:30.450Z,1.05
2022-08-05T10:58:11.773Z,1.00
2022-08-05T11:00:48.458Z,0.68
2022-08-05T11:03:27.062Z,0.82
2022-08-05T11:06:15.326Z,0.90
2022-08-05T11:09:16.597Z,1.20
2022-08-05T11:11:52.474Z,1.25
2022-08-05T11:14:57.613Z,1.38
2022-08-05T11:17:58.768Z,2.20
2022-08-05T11:20:44.670Z,1.63
2022-08-05T11:24:05.500Z,1.10
2022-08-05T11:29:11.878Z,1.05
2022-08-05T11:31:58.166Z,1.40
2022-08-05T11:34:39.209Z,1.42
2022-08-05T11:38:31.027Z,1.40
2022-08-05T11:40:02.962Z,1.38
2022-08-05T11:42:37.977Z,1.40
2022-08-05T11:45:23.118Z,1.40
2022-08-05T11:47:59.951Z,1.60
2022-08-05T11:50:29.876Z,1.50
2022-08-05T11:53:06.354Z,2.10
2022-08-05T11:55:39.069Z,1.88
2022-08-05T11:58:11.844Z,1.70
2022-08-05T12:00:44.472Z,1.85
2022-08-05T12:03:23.922Z,1.50
2022-08-05T12:06:09.751Z,1.75
2022-08-05T12:08:50.062Z,1.60
2022-08-05T12:11:22.126Z,1.63
2022-08-05T12:13:55.963Z,1.60
2022-08-05T12:16:33.662Z,1.42
2022-08-05T12:20:26.633Z,1.33
2022-08-05T12:22:01.679Z,1.40
2022-08-05T12:24:32.108Z,1.67
2022-08-05T12:27:09.949Z,1.92
2022-08-05T12:30:01.268Z,1.50
2022-08-05T12:32:34.235Z,2.70
2022-08-05T12:35:04.685Z,2.73
2022-08-05T12:37:34.167Z,2.73
2022-08-05T12:40:10.714Z,2.35
2022-08-05T12:42:41.171Z,2.72
2022-08-05T12:45:11.789Z,2.95
2022-08-05T12:47:43.545Z,2.67
2022-08-05T12:50:30.862Z,2.88
2022-08-05T12:53:00.591Z,2.97
2022-08-05T12:55:33.178Z,2.90
2022-08-05T12:58:50.507Z,3.15
2022-08-05T13:02:03.099Z,2.78
2022-08-05T13:03:45.495Z,2.72
2022-08-05T13:06:20.905Z,2.70
2022-08-05T13:08:52.968Z,2.78
2022-08-05T13:11:53.815Z,2.78
2022-08-05T13:14:19.339Z,2.72
2022-08-05T13:16:51.144Z,3.50
2022-08-05T13:19:23.168Z,3.63
2022-08-05T13:21:55.983Z,3.40
2022-08-05T13:24:27.680Z,2.92
2022-08-05T13:27:37.401Z,3.08
2022-08-05T13:30:34.810Z,3.00
2022-08-05T13:33:01.226Z,3.30
2022-08-05T13:35:50.438Z,2.78
2022-08-05T13:38:30.838Z,2.70
2022-08-05T13:41:04.995Z,3.03
2022-08-05T13:43:45.651Z,2.60
2022-08-05T13:46:43.670Z,2.40
2022-08-05T13:49:13.777Z,2.30
2022-08-05T13:51:46.629Z,2.30
2022-08-05T13:54:21.256Z,2.50
2022-08-05T13:56:54.709Z,2.50
2022-08-05T13:59:27.208Z,2.47
2022-08-05T14:02:00.815Z,2.33
2022-08-05T14:04:51.190Z,2.08
2022-08-05T14:07:56.477Z,2.30
2022-08-05T14:10:18.849Z,1.92
2022-08-05T14:12:57.746Z,1.80
2022-08-05T14:16:08.352Z,1.90
2022-08-05T14:18:23.059Z,2.28
2022-08-05T14:20:55.135Z,1.77
2022-08-05T14:25:58.593Z,2.23
2022-08-05T14:28:29.630Z,2.08
2022-08-05T14:31:02.792Z,2.10
2022-08-05T14:33:59.473Z,2.28
2022-08-05T14:36:22.725Z,2.22
2022-08-05T14:38:53.143Z,1.98
2022-08-05T14:41:23.668Z,1.83
2022-08-05T14:44:01.666Z,2.13
2022-08-05T14:46:39.848Z,1.55
2022-08-05T14:49:09.239Z,1.67
2022-08-05T14:51:42.874Z,1.70
2022-08-05T14:54:28.639Z,1.60
2022-08-05T14:57:00.308Z,2.00
2022-08-05T14:59:35.605Z,1.70
2022-08-05T15:02:15.138Z,1.90
2022-08-05T15:04:47.878Z,1.70
2022-08-05T15:08:13.186Z,1.65
2022-08-05T15:10:09.810Z,1.80
2022-08-05T15:12:59.884Z,1.60
2022-08-05T15:15:54.082Z,1.67
2022-08-05T15:18:19.029Z,1.77
2022-08-05T15:20:48.137Z,1.50
2022-08-05T15:23:17.250Z,1.92
2022-08-05T15:25:53.830Z,1.80
2022-08-05T15:28:27.835Z,1.60
2022-08-05T15:30:57.202Z,1.30
2022-08-05T15:34:19.482Z,1.50
2022-08-05T15:36:24.157Z,1.55
2022-08-05T15:41:01.609Z,1.20
2022-08-05T15:41:57.333Z,1.30
2022-08-05T15:44:30.243Z,1.20
2022-08-05T15:47:02.317Z,1.13
2022-08-05T15:49:40.785Z,1.10
2022-08-05T15:52:51.768Z,1.05
2022-08-05T15:55:08.722Z,1.45
2022-08-05T15:57:44.943Z,1.27
2022-08-05T16:00:17.013Z,1.20
2022-08-05T16:03:02.037Z,1.40
2022-08-05T16:05:32.646Z,1.08
2022-08-05T16:08:01.769Z,1.03
2022-08-05T16:10:30.810Z,1.20
2022-08-05T16:13:00.074Z,1.30
2022-08-05T16:15:32.292Z,1.33
2022-08-05T16:18:04.072Z,1.30
2022-08-05T16:20:34.933Z,1.33
2022-08-05T16:23:05.115Z,1.52
2022-08-05T16:25:37.949Z,1.50
2022-08-05T16:28:10.227Z,1.50
2022-08-05T16:30:39.756Z,1.50
2022-08-05T16:33:10.717Z,2.03
2022-08-05T16:35:43.154Z,1.85
2022-08-05T16:38:24.346Z,1.70
2022-08-05T16:41:00.186Z,1.60
2022-08-05T16:43:32.713Z,1.92
2022-08-05T16:46:23.912Z,2.10
2022-08-05T16:48:52.749Z,1.80
2022-08-05T16:51:23.288Z,1.70
2022-08-05T16:54:06.230Z,1.70
2022-08-05T16:56:41.603Z,1.90
2022-08-05T16:59:11.888Z,2.10
2022-08-05T17:01:52.866Z,1.98
2022-08-05T17:04:26.403Z,1.55
2022-08-05T17:07:01.258Z,1.67
2022-08-05T17:09:38.961Z,1.20
2022-08-05T17:12:22.654Z,1.60
2022-08-05T17:15:10.438Z,1.55
2022-08-05T17:17:45.321Z,1.27
2022-08-05T17:20:19.181Z,1.45
2022-08-05T17:22:55.361Z,1.48
2022-08-05T17:25:39.708Z,1.70
2022-08-05T17:28:10.121Z,1.65
2022-08-05T17:30:50.424Z,2.00
2022-08-05T17:33:21.734Z,2.05
2022-08-05T17:36:09.408Z,2.50
2022-08-05T17:38:41.329Z,2.40
2022-08-05T17:41:11.563Z,2.22
2022-08-05T17:43:53.435Z,2.30
2022-08-05T17:48:52.800Z,2.25
2022-08-05T17:51:22.287Z,2.40
2022-08-05T17:53:54.654Z,3.10
2022-08-05T17:56:28.377Z,2.70
2022-08-05T17:58:58.015Z,2.45
2022-08-05T18:01:27.214Z,2.45
2022-08-05T18:03:59.385Z,2.45
2022-08-05T18:06:33.488Z,3.30
2022-08-05T18:09:04.124Z,3.13
2022-08-05T18:11:38.619Z,3.33
2022-08-05T18:14:13.631Z,3.08
2022-08-05T18:16:51.820Z,3.33
2022-08-05T18:19:22.660Z,3.38
2022-08-05T18:22:08.916Z,3.60
2022-08-05T18:24:41.724Z,3.05
2022-08-05T18:27:12.311Z,3.13
2022-08-05T18:29:42.176Z,3.10
2022-08-05T18:32:12.849Z,3.17
2022-08-05T18:34:42.948Z,3.40
2022-08-05T18:37:16.938Z,3.42
2022-08-05T18:40:33.857Z,3.55
2022-08-05T18:42:52.192Z,3.38
2022-08-05T18:45:21.676Z,3.20
2022-08-05T18:47:56.756Z,3.58
2022-08-05T18:50:45.260Z,3.40
2022-08-05T18:53:20.478Z,3.58
2022-08-05T18:55:55.064Z,3.45
2022-08-05T18:58:27.203Z,3.73
2022-08-05T19:00:58.528Z,3.45
2022-08-05T19:03:53.160Z,2.80
2022-08-05T19:06:22.419Z,2.65
2022-08-05T19:09:04.027Z,2.90
2022-08-05T19:11:36.999Z,2.70
2022-08-05T19:14:59.348Z,2.58
2022-08-05T19:17:13.960Z,2.85
2022-08-05T19:19:47.114Z,2.83
2022-08-05T19:22:18.193Z,2.90
2022-08-05T19:24:54.434Z,3.55
2022-08-05T19:27:27.777Z,2.88
2022-08-05T19:29:59.591Z,3.45
2022-08-05T19:32:29.130Z,4.05
2022-08-05T19:34:58.324Z,3.03
2022-08-05T19:37:35.190Z,3.35
2022-08-05T19:40:17.436Z,3.38
2022-08-05T19:43:00.831Z,3.42
2022-08-05T19:45:36.766Z,3.20
2022-08-05T19:48:07.304Z,2.80
2022-08-05T19:50:44.796Z,2.90
2022-08-05T19:53:13.906Z,3.38
2022-08-05T19:56:13.956Z,3.92
2022-08-05T19:58:53.327Z,2.97
2022-08-05T20:01:28.319Z,2.85
2022-08-05T20:03:57.903Z,3.10
2022-08-05T20:06:28.909Z,2.88
2022-08-05T20:09:06.150Z,3.10
2022-08-05T20:11:48.298Z,3.13
2022-08-05T20:14:26.902Z,3.20
2022-08-05T20:16:58.595Z,2.90
2022-08-05T20:19:36.258Z,3.58
2022-08-05T20:22:05.649Z,4.45
2022-08-05T20:24:38.746Z,4.57
2022-08-05T20:27:11.345Z,4.40
2022-08-05T20:29:42.227Z,3.83
2022-08-05T20:32:28.513Z,4.50
2022-08-05T20:34:57.792Z,4.00
2022-08-05T20:38:05.962Z,3.40
2022-08-05T20:40:17.053Z,3.83
2022-08-05T20:42:47.114Z,3.83
2022-08-05T20:45:17.624Z,3.50
2022-08-05T20:47:50.159Z,3.60
2022-08-05T20:50:21.165Z,3.55
2022-08-05T20:52:51.747Z,3.00
2022-08-05T20:56:07.911Z,2.85
2022-08-05T20:58:12.535Z,3.08
2022-08-05T21:00:54.625Z,3.10
2022-08-05T21:03:23.983Z,3.03
2022-08-05T21:05:55.615Z,3.00
2022-08-05T21:08:41.645Z,2.85
2022-08-05T21:11:12.387Z,2.60
2022-08-05T21:13:48.044Z,2.53
2022-08-05T21:16:29.997Z,3.10
2022-08-05T21:19:01.176Z,2.83
2022-08-05T21:21:44.475Z,3.00
2022-08-05T21:24:20.285Z,3.00
2022-08-05T21:26:53.472Z,3.30
2022-08-05T21:29:31.496Z,3.10
2022-08-05T21:32:03.963Z,3.50
2022-08-05T21:34:35.506Z,2.90
2022-08-05T21:37:05.811Z,3.40
2022-08-05T21:39:40.394Z,3.92
2022-08-05T21:42:31.087Z,3.00
2022-08-05T21:44:59.887Z,3.13
2022-08-05T21:47:54.913Z,3.17
2022-08-05T21:50:20.187Z,3.45
2022-08-05T21:52:51.363Z,3.13
2022-08-05T21:56:00.950Z,3.33
2022-08-05T21:58:10.400Z,3.65
2022-08-05T22:00:40.858Z,3.67
2022-08-05T22:03:52.122Z,3.45
2022-08-05T22:06:10.527Z,3.90
2022-08-05T22:08:42.489Z,3.50
2022-08-05T22:11:15.735Z,3.50
2022-08-05T22:14:32.447Z,3.45
2022-08-05T22:16:50.775Z,3.53
2022-08-05T22:20:01.591Z,3.28
2022-08-05T22:22:11.924Z,3.30
2022-08-05T22:24:58.899Z,3.33
2022-08-05T22:28:09.824Z,3.15
2022-08-05T22:30:38.486Z,3.50
2022-08-05T22:33:55.786Z,3.38
2022-08-05T22:36:18.196Z,3.20
2022-08-05T22:38:48.906Z,3.10
2022-08-05T22:42:05.099Z,3.13
2022-08-05T22:44:09.095Z,3.58
2022-08-05T22:46:40.080Z,3.55
2022-08-05T22:49:23.541Z,3.25
2022-08-05T22:52:06.568Z,3.35
2022-08-05T22:54:37.707Z,3.33
2022-08-05T22:57:08.645Z,3.15
2022-08-05T22:59:46.207Z,3.10
2022-08-05T23:02:29.288Z,3.20
2022-08-05T23:05:01.799Z,3.60
2022-08-05T23:07:45.524Z,3.47
2022-08-05T23:10:20.067Z,3.20
2022-08-05T23:12:51.695Z,3.15
2022-08-05T23:15:29.250Z,3.20
2022-08-05T23:18:06.102Z,3.17
2022-08-05T23:20:43.197Z,3.67
2022-08-05T23:23:13.955Z,3.33
2022-08-05T23:25:52.394Z,3.83
2022-08-05T23:28:26.921Z,3.53
2022-08-05T23:31:16.411Z,3.33
2022-08-05T23:34:05.690Z,3.80
2022-08-05T23:36:38.644Z,3.53
2022-08-05T23:39:17.461Z,3.63
2022-08-05T23:41:54.021Z,3.40
2022-08-05T23:44:31.374Z,3.85
2022-08-05T23:47:02.464Z,3.53
2022-08-05T23:49:44.343Z,3.35
2022-08-05T23:55:05.460Z,3.33
2022-08-05T23:57:36.717Z,3.22
